Главная страница
METAR-TAF:

METAR-TAF

Аэропорты :

Бонрики

Тарава, Кирибати

широта: 01-21N, долгота: 172-55E, высота над уровнем моря: 2 м

Текущие метеонаблюдения

Эта сводка был подготовлена 4 часа и 13 минут назад, в 06:00 UTC
Ветер 7 Узел от восточный
Температура 30°C
Влажность 79%
Давление 1008 hPa
Видимость 10 км и более
Отдельные облака на высоте 1800 фута, мощно-кучевые.

METAR: NGTA 250600Z 10007KT 9999 SCT018TCU 30/26 Q1008

Время: 00:13 (10:13 UTC)

Прогноз

Эта сводка был подготовлена 5 часа и 8 минут назад, в 05:05 UTC
Прогноз действительный с 25-го 06 UTC до 26-го 06 UTC
Ветер 9 Узел от восточный
Видимость 10 км и более
небольшая облачность на высоте 2000 фута
Вероятность 40% :
временами
С 25-го 06 UTC до 25-го 12 UTC
Видимость: 5000 м
небольшая облачность на высоте 1800 фута, Кучево-дождевые.
гроза, дождь,

TAF: NGTA 250505Z 2506/2606 09009KT 9999 FEW020 PROB40 TEMPO 2506/2512 5000 TSRA FEW018CB

Метеонаблюдения и прогнозы для более 4000 аэропортов (сводки METAR и TAF).

Имеющиеся станции представлены на карте желтыми и красными точками.

Чтобы увидеть название станции, наведите на нее мышь.

Затем щелкните, чтобы увидеть метеонаблюдения и метеопрогнозы.

Управление картой: чтобы увеличить масштаб, щелкните зеленые кнопки с черным крестиком; чтобы уменьшить масштаб, щелкните зеленую кнопку с тире; для просмотра соседних карт щелкайте зеленые стрелки.


METAR-TAF: